Terminal Aerodrome Forecast
Issued by NWS

Home | Current Version | Previous Version | Text Only | Print | Product List | Glossary On
Versions: 1 2 3 4 5 6 7 8 9 10 11 12 13 14 15 16 17 18 19 20 21 22 23
000
FTUS41 KBOX 260542 AAA
TAFHYA
TAF AMD
KHYA 260542Z 2606/2706 26007KT P6SM FEW250
     FM260900 30005KT P6SM FEW250
     FM261300 36006KT P6SM FEW250
     FM261600 05006KT P6SM FEW250
     FM261700 10006KT P6SM FEW250
     FM262000 15007KT P6SM SCT250=

USA.gov is the U.S. government's official web portal to all federal, state and local government web resources and services.